FW5335 Weather Reports


Display with metric or nautical units.
time (UTC)temp
F
wind
direction
speed
MPH
gust
MPH
rain 1hr
in
rain 24hr
in
rain mn
in
humidity
%
barometer
mb
20210117100037 43 270 5.0 9.0 0.00 0.01 0.00 83 1027.9
20210117095021 42 270 3.0 8.0 0.00 0.01 0.00 84 1027.6
20210117094021 41 248 2.0 4.0 0.00 0.01 0.00 85 1027.5
20210117093027 41 180 4.0 7.0 0.00 0.01 0.00 85 1027.6
20210117092028 41 180 4.0 6.0 0.00 0.01 0.00 85 1027.5
20210117091022 41 135 2.0 5.0 0.00 0.01 0.00 84 1027.4
20210117090024 41 270 1.0 4.0 0.00 0.01 0.00 84 1027.2
20210117085021 41 270 4.0 7.0 0.00 0.01 0.00 84 1027.1
20210117084036 41 270 6.0 9.0 0.00 0.01 0.00 83 1026.7
20210117083016 42 293 5.0 11.0 0.00 0.01 0.00 83 1026.4
20210117082016 42 293 5.0 14.0 0.00 0.01 0.00 83 1026.3
20210117081049 41 315 7.0 10.0 0.00 0.01 0.00 83 1026.1
20210117080022 41 315 8.0 14.0 0.00 0.02 0.00 83 1026.1
20210117075016 41 315 8.0 13.0 0.00 0.02 0.00 84 1026.0
20210117074018 41 315 6.0 13.0 0.00 0.02 0.00 84 1026.0
20210117073019 41 315 4.0 8.0 0.00 0.03 0.00 84 1025.9
20210117072028 40 270 4.0 10.0 0.00 0.03 0.00 85 1025.8
20210117071016 40 248 2.0 3.0 0.00 0.04 0.00 84 1025.8
20210117070032 41 248 1.0 2.0 0.00 0.04 0.00 83 1025.7
20210117065017 41 248 2.0 4.0 0.00 0.04 0.00 83 1025.7
20210117064020 41 225 4.0 7.0 0.00 0.04 0.00 83 1025.4
20210117063028 41 248 3.0 5.0 0.00 0.05 0.00 82 1025.1
20210117062023 42 270 3.0 5.0 0.00 0.06 0.00 81 1024.9
20210117061016 42 270 6.0 10.0 0.00 0.07 0.00 80 1024.7
20210117060029 43 293 7.0 15.0 0.00 0.09 0.00 81 1024.6
20210117055020 43 270 8.0 15.0 0.00 0.10 0.00 81 1024.5
20210117054034 43 293 6.0 16.0 0.00 0.11 0.00 81 1024.5
20210117053022 44 315 7.0 12.0 0.00 0.13 0.00 81 1024.4
20210117052019 44 315 6.0 12.0 0.00 0.13 0.00 80 1024.2
20210117051020 44 315 8.0 15.0 0.00 0.13 0.00 80 1024.3
20210117050033 44 315 8.0 18.0 0.00 0.13 0.00 80 1024.2
20210117045019 44 315 7.0 14.0 0.00 0.13 0.00 80 1024.2
20210117044020 44 315 9.0 20.0 0.00 0.15 0.00 80 1024.1
20210117043027 44 315 7.0 13.0 0.00 0.16 0.00 81 1023.8
20210117042024 43 293 6.0 13.0 0.00 0.17 0.00 80 1023.7
20210117041018 43 315 6.0 12.0 0.00 0.19 0.00 80 1023.8
20210117040029 43 293 6.0 12.0 0.00 0.20 0.00 81 1023.6
20210117035024 43 270 6.0 12.0 0.00 0.21 0.00 80 1023.5
20210117034029 43 270 7.0 11.0 0.00 0.21 0.00 81 1023.4
20210117033026 43 270 8.0 12.0 0.00 0.22 0.00 80 1023.2
20210117032016 43 270 8.0 12.0 0.00 0.22 0.00 80 1023.0
20210117031018 43 270 8.0 12.0 0.00 0.23 0.00 80 1023.1
20210117030031 43 270 6.0 11.0 0.00 0.23 0.00 80 1023.1
20210117025032 44 270 6.0 10.0 0.00 0.24 0.00 80 1023.2
20210117024020 44 270 8.0 14.0 0.00 0.25 0.00 80 1023.1
20210117023021 43 270 7.0 14.0 0.00 0.27 0.00 80 1023.1
20210117022021 43 270 8.0 16.0 0.00 0.29 0.00 81 1023.1
20210117021027 42 270 6.0 9.0 0.00 0.31 0.00 82 1023.1
20210117020036 42 270 5.0 10.0 0.00 0.33 0.00 82 1023.2
20210117015033 42 270 5.0 9.0 0.00 0.35 0.00 82 1023.2
20210117014026 42 270 5.0 9.0 0.00 0.35 0.00 81 1023.0
20210117013025 42 270 4.0 8.0 0.00 0.36 0.00 82 1022.7
20210117012029 41 270 7.0 11.0 0.00 0.37 0.00 82 1022.8
20210117011022 41 270 4.0 8.0 0.00 0.38 0.00 82 1022.9
20210117010032 41 293 4.0 7.0 0.00 0.38 0.00 82 1022.9
20210117005019 41 270 3.0 6.0 0.00 0.38 0.00 82 1022.8
20210117004020 41 270 3.0 7.0 0.00 0.38 0.00 81 1022.8
20210117003027 41 248 4.0 9.0 0.00 0.38 0.00 81 1022.7
20210117002034 42 270 3.0 6.0 0.00 0.38 0.00 80 1022.8
20210117001019 42 248 2.0 4.0 0.00 0.38 0.00 79 1022.8
20210117000031 42 225 4.0 7.0 0.00 0.38 0.38 79 1022.8
20210116235023 43 270 6.0 10.0 0.00 0.38 0.38 79 1023.0
20210116234021 43 270 5.0 9.0 0.00 0.38 0.38 79 1022.9
20210116233025 43 270 5.0 9.0 0.00 0.38 0.38 79 1022.8
20210116232021 43 270 5.0 9.0 0.00 0.38 0.38 77 1022.8
20210116231017 43 270 6.0 10.0 0.00 0.38 0.38 77 1022.7
20210116230031 44 270 8.0 11.0 0.00 0.38 0.38 76 1022.6
20210116225022 44 270 10.0 16.0 0.00 0.38 0.38 76 1022.6
20210116224022 44 270 8.0 14.0 0.00 0.38 0.38 74 1022.4
20210116223025 44 270 7.0 12.0 0.00 0.38 0.38 74 1022.3
20210116222021 45 270 9.0 13.0 0.00 0.38 0.38 73 1022.3
20210116221020 45 270 8.0 12.0 0.00 0.38 0.38 73 1022.2
20210116220036 45 270 8.0 12.0 0.00 0.38 0.38 73 1022.2
20210116215037 46 293 7.0 12.0 0.00 0.38 0.38 74 1022.2
20210116214029 46 270 6.0 13.0 0.00 0.38 0.38 75 1022.2
20210116213023 45 270 7.0 11.0 0.00 0.38 0.38 77 1022.0
20210116212025 46 270 6.0 11.0 0.00 0.38 0.38 77 1022.0
20210116211028 46 270 5.0 10.0 0.00 0.38 0.38 76 1022.0
20210116210036 46 293 7.0 13.0 0.00 0.38 0.38 76 1021.8
20210116205036 46 293 7.0 17.0 0.00 0.38 0.38 77 1021.8
20210116204024 46 293 5.0 10.0 0.00 0.38 0.38 79 1021.8
20210116203021 46 270 6.0 14.0 0.00 0.38 0.38 80 1021.8
20210116202032 47 293 6.0 11.0 0.00 0.38 0.38 80 1021.7
20210116201043 47 293 5.0 15.0 0.00 0.38 0.38 81 1021.8
20210116200045 47 315 5.0 13.0 0.00 0.38 0.38 81 1021.7
20210116195019 47 270 6.0 10.0 0.00 0.38 0.38 81 1021.6
20210116194049 47 293 6.0 12.0 0.00 0.38 0.38 81 1021.8
20210116193048 47 293 6.0 12.0 0.00 0.38 0.38 81 1021.8
20210116192029 47 293 6.0 11.0 0.00 0.38 0.38 81 1021.5
20210116191019 47 293 4.0 8.0 0.00 0.38 0.38 81 1021.3
20210116190044 47 293 3.0 8.0 0.00 0.38 0.38 81 1021.2
20210116185025 47 315 5.0 12.0 0.00 0.38 0.38 81 1021.3
20210116184033 47 315 4.0 9.0 0.00 0.38 0.38 81 1021.1
20210116183042 47 293 6.0 11.0 0.00 0.38 0.38 80 1021.1
20210116182344 47 315 5.0 10.0 0.00 0.38 0.38 81 1021.0
20210116181133 47 293 3.0 8.0 0.00 0.38 0.38 81 1020.8
20210116180037 47 293 4.0 9.0 0.00 0.38 0.38 81 1020.7
20210116175017 47 315 5.0 11.0 0.00 0.38 0.38 80 1020.4
20210116174018 47 315 6.0 11.0 0.00 0.38 0.38 80 1020.3
20210116173027 47 315 4.0 10.0 0.00 0.38 0.38 81 1020.3
20210116172023 47 293 3.0 8.0 0.00 0.38 0.38 81 1020.2
20210116171018 47 315 2.0 7.0 0.00 0.38 0.38 81 1019.9
20210116170026 47 270 4.0 11.0 0.00 0.38 0.38 81 1019.8
20210116165023 47 293 4.0 10.0 0.00 0.38 0.38 81 1019.8
20210116164022 48 293 4.0 8.0 0.00 0.38 0.38 80 1019.6
20210116163025 48 293 5.0 11.0 0.00 0.38 0.38 80 1019.4
20210116162020 48 270 7.0 12.0 0.00 0.38 0.38 80 1019.4
20210116161019 48 270 6.0 17.0 0.00 0.38 0.38 79 1019.3
20210116160027 48 293 6.0 13.0 0.00 0.38 0.38 78 1019.3
20210116155024 48 270 6.0 12.0 0.00 0.38 0.38 79 1019.3
20210116154018 48 270 4.0 10.0 0.00 0.38 0.38 79 1019.2
20210116153026 48 293 8.0 13.0 0.00 0.38 0.38 78 1019.2
20210116152027 48 270 7.0 11.0 0.00 0.38 0.38 78 1019.2
20210116151016 49 270 9.0 14.0 0.00 0.38 0.38 78 1019.0
20210116150039 49 270 9.0 16.0 0.00 0.38 0.38 78 1018.8
20210116145020 49 270 8.0 13.0 0.00 0.38 0.38 78 1018.7
20210116144020 49 293 10.0 17.0 0.00 0.38 0.38 76 1018.7
20210116143036 49 293 10.0 17.0 0.00 0.38 0.38 78 1018.6
20210116142031 49 293 10.0 16.0 0.00 0.38 0.38 78 1018.8
20210116141138 49 315 8.0 12.0 0.00 0.38 0.38 78 1019.0
20210116140150 49 315 10.0 19.0 0.00 0.38 0.38 79 1018.9
20210116135019 49 315 8.0 16.0 0.00 0.38 0.38 79 1018.9
20210116134026 49 315 9.0 14.0 0.00 0.38 0.38 78 1018.6
20210116133024 49 315 12.0 21.0 0.00 0.38 0.38 78 1018.6
20210116132017 49 315 8.0 18.0 0.00 0.38 0.38 79 1018.7
20210116131022 49 315 10.0 20.0 0.00 0.38 0.38 79 1018.7
20210116130050 49 315 9.0 15.0 0.00 0.38 0.38 80 1018.7
20210116125036 49 315 7.0 14.0 0.00 0.38 0.38 80 1018.9
20210116124029 49 315 7.0 13.0 0.00 0.38 0.38 80 1018.9
20210116123028 49 315 10.0 17.0 0.00 0.38 0.38 80 1018.9
20210116122025 49 315 10.0 14.0 0.00 0.38 0.38 81 1019.2
20210116121025 49 315 6.0 11.0 0.00 0.38 0.38 81 1019.0
20210116120040 49 315 9.0 16.0 0.00 0.38 0.38 80 1019.1
20210116115025 49 315 8.0 17.0 0.00 0.38 0.38 81 1019.0
20210116114020 49 315 8.0 16.0 0.00 0.38 0.38 81 1019.1
20210116113037 49 315 10.0 17.0 0.00 0.38 0.38 81 1019.0
20210116112028 49 315 8.0 23.0 0.00 0.38 0.38 83 1019.0
20210116111025 48 315 7.0 19.0 0.01 0.38 0.38 83 1019.0
20210116110033 49 315 7.0 13.0 0.01 0.38 0.38 84 1019.2
20210116105026 48 315 9.0 20.0 0.01 0.38 0.38 84 1019.0
20210116104022 48 315 10.0 19.0 0.01 0.38 0.38 84 1019.1
20210116103017 48 315 9.0 17.0 0.01 0.38 0.38 84 1018.9
20210116102020 49 315 8.0 20.0 0.01 0.38 0.38 85 1018.6
20210116101018 49 315 5.0 10.0 0.00 0.37 0.37 88 1018.5